Latest Coastal Weather Observations for Ballina

IDN60701

Issued at 7:31 am EST Saturday 30 April 2016 (issued every 10 minutes, with the page automatically refreshed every 10 minutes)

About coastal observations | Map of coastal stations | Coastal observations for NSW | Marine services | Other Formats
Station Details ID: 058198 Name: BALLINA AIRPORT AWS Lat: -28.84 Lon: 153.56 Height: 1.3 m
Data from the previous 72 hours. | See also: Recent months at Ballina
Date/Time
EST
Temp

°C
Wind Pressure Rain
since 9am
mm
Weather Cloud Vis
km
Sea
Height
m
Swell
Dir
 
Speed
knots
Gust
knots
hPa Trend Height
m
Period
s
Dir
30/07:30am 19.6 CALM 0 0 1021.9 - 0.0 - - 10 - - - -
30/07:00am 18.5 CALM 0 0 1021.7 - 0.0 - Partly cloudy 10 - - - -
30/06:30am 18.2 CALM 0 0 1021.5 - 0.0 - Partly cloudy 10 - - - -
30/06:00am 18.5 CALM 0 0 1021.4 - 0.0 - Partly cloudy 10 - - - -
30/05:30am 18.8 CALM 0 0 1021.1 - 0.0 - Partly cloudy 10 - - - -
30/05:00am 18.8 CALM 0 0 1020.9 - 0.0 - Partly cloudy 10 - - - -
30/04:30am 18.6 CALM 0 0 1020.8 - 0.0 - Partly cloudy 10 - - - -
30/04:00am 18.4 CALM 0 0 1020.5 - 0.0 - Partly cloudy 10 - - - -
30/03:30am 18.5 NW 1 3 1020.4 - 0.0 - Partly cloudy 10 - - - -
30/03:00am 18.5 NW 1 3 1020.7 - 0.0 - Partly cloudy 10 - - - -
30/02:30am 19.3 NNW 3 4 1020.7 - 0.0 - Partly cloudy 10 - - - -
30/02:00am 18.7 CALM 0 4 1021.1 - 0.0 - Partly cloudy 10 - - - -
30/01:30am 18.5 CALM 0 0 1021.2 - 0.0 - Partly cloudy 10 - - - -
30/01:00am 18.6 CALM 0 0 1021.5 - 0.0 - Partly cloudy 10 - - - -
30/12:30am 18.6 CALM 0 0 1021.5 - 0.0 - Partly cloudy 10 - - - -
30/12:00am 18.3 CALM 0 0 1021.7 - 0.0 - Cloudy 10 - - - -
 
Date/Time
EST
Temp

°C
Wind Pressure Rain
since 9am
mm
Weather Cloud Vis
km
Sea
Height
m
Swell
Dir
 
Speed
knots
Gust
knots
hPa Trend Height
m
Period
s
Dir
29/11:30pm 18.3 CALM 0 0 1022.2 - 0.0 - Partly cloudy 10 - - - -
29/11:00pm 18.7 CALM 0 0 1022.5 - 0.0 - - 10 - - - -
29/10:30pm 18.9 NW 2 4 1023.0 - 0.0 - Partly cloudy 10 - - - -
29/10:00pm 19.3 CALM 0 0 1022.8 - 0.0 - - 10 - - - -
29/09:30pm 19.9 CALM 0 1 1022.9 - 0.0 - Partly cloudy 10 - - - -
29/09:00pm 20.6 NNW 5 6 1022.9 - 0.0 - Cloudy 10 - - - -
29/08:30pm 20.5 N 4 5 1022.7 - 0.0 - Cloudy 10 - - - -
29/08:00pm 20.2 NNW 4 5 1022.7 - 0.0 - Cloudy 10 - - - -
29/07:30pm 19.9 CALM 0 0 1022.4 - 0.0 - Cloudy 10 - - - -
29/07:00pm 20.1 CALM 0 0 1022.2 - 0.0 - Partly cloudy 10 - - - -
29/06:30pm 19.9 NNE 1 3 1022.1 - 0.0 - - 10 - - - -
29/06:00pm 20.4 NNE 3 3 1021.8 - 0.0 - Mostly clear 10 - - - -
29/05:30pm 20.8 NNE 4 5 1021.8 - 0.0 - Partly cloudy 10 - - - -
29/05:00pm 21.8 NE 4 6 1021.5 - 0.0 - Partly cloudy 10 - - - -
29/04:30pm 23.0 ENE 3 4 1021.2 - 0.0 - Partly cloudy 10 - - - -
29/04:00pm 23.6 ENE 7 9 1021.1 - 0.0 - - 10 - - - -
29/03:30pm 24.6 ENE 7 10 1021.0 - 0.0 - Partly cloudy 10 - - - -
29/03:00pm 24.5 ENE 7 10 1021.1 - 0.0 - Mostly cloudy 10 - - - -
29/02:30pm 25.1 ENE 9 11 1021.1 - 0.0 - Partly cloudy 10 - - - -
29/02:00pm 25.2 E 8 11 1021.2 - 0.0 - Partly cloudy 10 - - - -
29/01:30pm 24.8 ENE 6 10 1021.4 - 0.0 - Partly cloudy 10 - - - -
29/01:00pm 24.7 E 6 8 1021.6 - 0.0 - Partly cloudy 10 - - - -
29/12:30pm 24.4 ENE 6 9 1022.1 - 0.0 - Cloudy 10 - - - -
29/12:00pm 24.6 E 6 10 1022.7 - 0.0 - Mostly cloudy 10 - - - -
29/11:30am 24.2 SE 6 10 1023.1 - 0.0 - Partly cloudy 10 - - - -
29/11:00am 24.8 SE 6 7 1023.5 - 0.0 - Partly cloudy 10 - - - -
29/10:30am 23.7 SSW 4 6 1024.3 - 0.0 - Partly cloudy 10 - - - -
29/10:00am 22.7 WSW 5 7 1024.8 - 0.0 - Partly cloudy 10 - - - -
29/09:30am 22.0 WSW 5 8 1024.7 - 0.0 - Partly cloudy 10 - - - -
29/09:00am 20.6 W 4 6 1025.0 - 0.4 - Mostly cloudy 10 - - - -
29/08:30am 19.7 NW 6 7 1025.1 - 0.4 - Partly cloudy 10 - - - -
29/08:00am 19.3 WSW 4 5 1024.7 - 0.4 - Partly cloudy 10 - - - -
29/07:30am 18.3 W 2 4 1024.6 - 0.4 - - 10 - - - -
29/07:00am 17.0 WSW 4 5 1024.3 - 0.4 - Partly cloudy 10 - - - -
29/06:30am 16.5 W 4 5 1024.1 - 0.4 - Partly cloudy 10 - - - -
29/06:00am 16.7 W 5 6 1023.7 - 0.4 - Mostly clear 10 - - - -
29/05:30am 17.2 W 4 4 1023.4 - 0.4 - Cloudy 10 - - - -
29/05:00am 17.5 WSW 4 6 1023.3 - 0.4 - Partly cloudy 10 - - - -
29/04:30am 17.0 NNW 4 11 1023.3 - 0.0 - Partly cloudy 10 - - - -
29/04:00am 16.2 CALM 0 0 1022.9 - 0.0 - Cloudy 10 - - - -
29/03:30am 16.1 CALM 0 0 1022.7 - 0.0 - Partly cloudy 10 - - - -
29/03:00am 15.5 ENE 2 5 1022.9 - 0.0 - Mostly cloudy 10 - - - -
29/02:49am 15.0 NE 5 6 1023.1 - 0.0 - Partly cloudy 7 - - - -
29/02:30am 15.0 CALM 0 0 1023.5 - 0.0 - Partly cloudy 0.8 - - - -
29/02:00am 15.0 CALM 0 0 1023.3 - 0.0 - - 1 - - - -
29/01:52am 14.9 CALM 0 0 1023.4 - 0.0 - Partly cloudy 5 - - - -
29/01:41am 15.5 CALM 0 0 1023.5 - 0.0 - Partly cloudy 10 - - - -
29/01:30am 15.4 CALM 0 0 1023.6 - 0.0 - Partly cloudy 2 - - - -
29/01:20am 15.4 CALM 0 0 1023.7 - 0.0 - Partly cloudy 4 - - - -
29/01:14am 15.1 CALM 0 0 1023.7 - 0.0 - Partly cloudy 10 - - - -
29/01:00am 15.0 CALM 0 0 1023.9 - 0.0 - Partly cloudy 2 - - - -
29/12:30am 15.6 CALM 0 0 1024.0 - 0.0 - - 2 - - - -
29/12:25am 15.7 CALM 0 0 1024.0 - 0.0 - - 5 - - - -
29/12:18am 16.0 CALM 0 0 1024.0 - 0.0 - - 10 - - - -
29/12:00am 15.9 CALM 0 0 1024.0 - 0.0 - - 2 - - - -
 
Date/Time
EST
Temp

°C
Wind Pressure Rain
since 9am
mm
Weather Cloud Vis
km
Sea
Height
m
Swell
Dir
 
Speed
knots
Gust
knots
hPa Trend Height
m
Period
s
Dir
28/11:53pm 16.0 CALM 0 0 1024.1 - 0.0 - - 5 - - - -
28/11:30pm 16.6 W 2 4 1024.1 - 0.0 - - 10 - - - -
28/11:00pm 16.3 W 3 4 1024.4 - 0.0 - - 10 - - - -
28/10:30pm 17.0 W 4 4 1024.5 - 0.0 - - 10 - - - -
28/10:00pm 16.9 CALM 0 0 1024.5 - 0.0 - Partly cloudy 10 - - - -
28/09:30pm 17.9 W 3 3 1024.4 - 0.0 - Partly cloudy 10 - - - -
28/09:00pm 17.6 WNW 2 5 1024.4 - 0.0 - Partly cloudy 10 - - - -
28/08:30pm 17.7 CALM 0 0 1024.3 - 0.0 - - 10 - - - -
28/08:00pm 17.7 CALM 0 0 1024.2 - 0.0 - Partly cloudy 10 - - - -
28/07:30pm 18.4 N 1 3 1024.0 - 0.0 - Partly cloudy 10 - - - -
28/07:00pm 18.4 ESE 1 4 1023.8 - 0.0 - Partly cloudy 10 - - - -
28/06:30pm 19.0 CALM 0 0 1023.6 - 0.0 - Partly cloudy 10 - - - -
28/06:00pm 19.5 CALM 0 0 1023.4 - 0.0 - - 10 - - - -
28/05:30pm 20.7 CALM 0 0 1023.1 - 0.0 - - 10 - - - -
28/05:00pm 22.1 ESE 4 5 1022.9 - 0.0 - - 10 - - - -
28/04:30pm 23.1 ESE 6 8 1022.8 - 0.0 - - 10 - - - -
28/04:00pm 23.8 ESE 6 8 1022.8 - 0.0 - - 10 - - - -
28/03:30pm 24.3 E 7 9 1022.7 - 0.0 - - 10 - - - -
28/03:00pm 24.7 ESE 6 10 1022.6 - 0.0 - Partly cloudy 10 - - - -
28/02:30pm 24.7 SSE 8 11 1022.6 - 0.0 - - 10 - - - -
28/02:00pm 24.5 SSE 8 10 1022.8 - 0.0 - - 10 - - - -
28/01:30pm 24.2 SSE 8 11 1022.8 - 0.0 - - 10 - - - -
28/01:00pm 24.9 SSE 7 10 1023.0 - 0.0 - - 10 - - - -
28/12:30pm 24.1 SSE 7 11 1023.4 - 0.0 - - 10 - - - -
28/12:00pm 24.4 SE 8 10 1023.8 - 0.0 - - 10 - - - -
28/11:30am 23.5 SSE 7 9 1024.2 - 0.0 - Partly cloudy 10 - - - -
28/11:00am 23.3 SW 7 9 1024.7 - 0.0 - Partly cloudy 10 - - - -
28/10:46am 22.7 S 7 9 1024.7 - 0.0 - Partly cloudy 10 - - - -
28/10:30am 22.9 SSW 6 9 1024.9 - 0.0 - Partly cloudy 10 - - - -
28/10:00am 22.1 SSW 6 8 1025.1 - 0.0 - Partly cloudy 10 - - - -
28/09:49am 22.3 SSW 6 8 1025.1 - 0.0 - Partly cloudy 10 - - - -
28/09:30am 21.9 SW 5 8 1025.0 - 0.0 - Partly cloudy 10 - - - -
28/09:00am 20.9 WSW 5 7 1024.8 - 4.8 - Mostly cloudy 10 - - - -
28/08:30am 20.2 W 6 7 1025.1 - 4.8 - Cloudy 10 - - - -
28/08:00am 19.6 W 5 7 1024.7 - 4.8 - Partly cloudy 10 - - - -
28/07:57am 19.7 W 5 6 1024.7 - 4.8 - Partly cloudy 10 - - - -
28/07:30am 18.8 W 5 7 1024.3 - 4.8 - Partly cloudy 10 - - - -
28/07:00am 18.1 WNW 3 4 1024.1 - 4.8 - Partly cloudy 10 - - - -
28/06:30am 17.6 W 5 5 1024.1 - 4.8 - Cloudy 10 - - - -
28/06:00am 17.7 W 3 5 1023.9 - 4.8 - Cloudy 10 - - - -
28/05:30am 17.8 WNW 6 7 1023.6 - 4.8 - Partly cloudy 10 - - - -
28/05:00am 17.9 W 5 7 1023.4 - 4.8 - Partly cloudy 10 - - - -
28/04:30am 17.7 W 2 3 1023.2 - 4.8 - Partly cloudy 10 - - - -
28/04:00am 17.4 W 1 5 1023.1 - 4.8 - Partly cloudy 10 - - - -
28/03:30am 17.7 W 5 6 1023.1 - 4.8 - Partly cloudy 10 - - - -
28/03:00am 17.7 W 4 6 1023.3 - 4.8 Recent precip. Cloudy 10 - - - -
28/02:30am 17.9 NW 4 6 1023.3 - 4.6 - Partly cloudy 10 - - - -
28/02:00am 17.9 W 5 7 1023.5 - 4.6 - Partly cloudy 10 - - - -
28/01:30am 17.9 SW 4 5 1023.8 - 4.6 - Partly cloudy 10 - - - -
28/01:00am 18.1 WSW 4 6 1024.0 - 4.6 - Partly cloudy 10 - - - -
28/12:30am 18.2 WSW 6 7 1024.0 - 4.6 - Partly cloudy 10 - - - -
28/12:00am 18.4 WSW 6 8 1024.1 - 4.6 - Cloudy 10 - - - -
 
Date/Time
EST
Temp

°C
Wind Pressure Rain
since 9am
mm
Weather Cloud Vis
km
Sea
Height
m
Swell
Dir
 
Speed
knots
Gust
knots
hPa Trend Height
m
Period
s
Dir
27/11:30pm 18.3 WSW 4 6 1024.1 - 4.6 - Partly cloudy 10 - - - -
27/11:00pm 18.4 WSW 5 7 1024.2 - 4.6 - Partly cloudy 10 - - - -
27/10:30pm 18.6 WSW 5 6 1024.3 - 4.6 - Partly cloudy 10 - - - -
27/10:14pm 18.7 NW 5 6 1024.4 - 4.6 - Partly cloudy 10 - - - -
27/10:00pm 18.7 NW 4 6 1024.5 - 4.6 - Partly cloudy 4 - - - -
27/09:47pm 18.6 NE 5 11 1024.8 - 4.0 - Partly cloudy 4 - - - -
27/09:30pm 18.4 WSW 6 7 1024.3 - 3.2 - Partly cloudy 10 - - - -
27/09:00pm 18.3 WSW 5 6 1024.3 - 3.2 Recent precip. Mostly cloudy 10 - - - -
27/08:45pm 18.6 W 4 5 1024.4 - 3.2 - Partly cloudy 10 - - - -
27/08:30pm 18.6 S 7 10 1024.5 - 3.0 - Partly cloudy 2 - - - -
27/08:25pm 18.2 SSW 6 10 1024.6 - 2.0 - Partly cloudy 5 - - - -
27/08:00pm 17.8 W 4 5 1024.4 - 0.6 - Partly cloudy 10 - - - -
27/07:30pm 18.7 WSW 6 7 1024.1 - 0.6 - Partly cloudy 10 - - - -
27/07:00pm 18.5 SW 3 5 1023.9 - 0.6 - Partly cloudy 10 - - - -
27/06:30pm 19.2 SW 5 8 1023.8 - 0.6 - Cloudy 10 - - - -
27/06:00pm 19.2 SW 6 8 1023.6 - 0.6 - Cloudy 10 - - - -
27/05:30pm 19.5 SW 5 8 1023.5 - 0.6 - Partly cloudy 10 - - - -
27/05:00pm 19.5 SSW 5 7 1023.2 - 0.6 - Partly cloudy 10 - - - -
27/04:54pm 19.5 SSW 5 7 1023.2 - 0.6 - Partly cloudy 10 - - - -
27/04:33pm 19.7 SE 10 15 1023.3 - 0.4 - Partly cloudy 5 - - - -
27/04:30pm 20.2 ESE 10 15 1023.3 - 0.4 - Partly cloudy 10 - - - -
27/04:00pm 21.1 E 12 17 1023.1 - 0.4 - Partly cloudy 10 - - - -
27/03:30pm 21.6 ESE 10 14 1022.6 - 0.4 - Partly cloudy 10 - - - -
27/03:02pm 21.5 ESE 10 16 1022.6 - 0.4 - Partly cloudy 10 - - - -
27/03:00pm 21.5 ESE 9 15 1022.6 - 0.4 Recent precip. Cloudy 10 - - - -
27/02:38pm 21.5 E 9 14 1022.8 - 0.2 - Partly cloudy 5 - - - -
27/02:30pm 22.8 E 9 14 1022.7 - 0.0 - Partly cloudy 10 - - - -
27/02:00pm 24.7 SSE 9 13 1022.7 - 0.0 - Partly cloudy 10 - - - -
27/01:30pm 22.4 SE 11 15 1023.1 - 0.0 - Partly cloudy 10 - - - -
27/01:00pm 24.1 E 9 14 1023.3 - 0.0 - Partly cloudy 10 - - - -
27/12:30pm 25.0 ESE 9 14 1023.5 - 0.0 - Partly cloudy 10 - - - -
27/12:00pm 24.6 ESE 10 14 1023.9 - 0.0 - Cloudy 10 - - - -
27/11:30am 24.9 ESE 10 15 1024.2 - 0.0 - Cloudy 10 - - - -
27/11:00am 24.3 ESE 10 13 1024.5 - 0.0 - Cloudy 10 - - - -
27/10:30am 24.5 ESE 9 13 1024.9 - 0.0 - Partly cloudy 10 - - - -
27/10:00am 23.7 S 5 8 1025.2 - 0.0 - Partly cloudy 10 - - - -
27/09:30am 22.2 SW 5 7 1025.3 - 0.0 - Partly cloudy 10 - - - -
27/09:00am 22.0 W 8 11 1025.4 - 5.0 - Cloudy 10 - - - -
27/08:30am 20.9 W 9 10 1025.4 - 5.0 - Partly cloudy 10 - - - -
27/08:00am 20.6 W 5 7 1025.2 - 5.0 - Partly cloudy 10 - - - -

Other Formats:

Comma delimited format used in spreadsheet applications
http://www.bom.gov.au/fwo/IDN60701/IDN60701.94596.axf

JavaScript Object Notation format (JSON) in row-major order
http://www.bom.gov.au/fwo/IDN60701/IDN60701.94596.json